^^
Datos históricos de la estación: Murcia-Puente Tocinos
Diario Informe para Julio 27, 2019 Unidades:  Métrico    Ingés   Ambas
Diario Semanal Mensual Anual
  Máxima: Mínima: Promedio:
Temperatura: 32.1 °C 24.4 °C 28.1 °C
Punto de rocio: 20.1 °C 15.1 °C 17.7 °C
Humedad: 73% 37.5% 55%
Velocidad viento: 27.4km/h 0km/h 11.8km/h
Racha viento: 48.3km/h - -
Viento- - SE
Presión: 1016.2 hPa 1014.2 hPa -
Precipitación: 0.0 mm    
 
 
Tabla de datos para Julio 27, 2019
Hora Temperatura Punto de rocio Presión Viento Velocidad viento Racha viento Humedad Intensidad lluvia(por hora) Nubes
00:04 25.2 °C 20 °C 1015.5 hPa NNO 2.2 km/h 7.6 km/h 73% 0.0 mm
00:09 25.2 °C 20 °C 1015.4 hPa NO 2.6 km/h 8 km/h 73% 0.0 mm
00:14 25.2 °C 20 °C 1015.4 hPa NO 3.2 km/h 6.4 km/h 73% 0.0 mm
00:19 25.2 °C 20 °C 1015.4 hPa NO 1.9 km/h 5.8 km/h 73% 0.0 mm
00:24 25.2 °C 20 °C 1015.3 hPa Calm   6.4 km/h 73% 0.0 mm
00:29 25.2 °C 20 °C 1015.3 hPa ONO 1.2 km/h 7.4 km/h 73% 0.0 mm
00:34 25.2 °C 20 °C 1015.3 hPa NO 2.9 km/h 8 km/h 73% 0.0 mm
00:39 25.2 °C 20 °C 1015.3 hPa Oeste 2.9 km/h 5.6 km/h 73% 0.0 mm
00:44 25.2 °C 20 °C 1015.3 hPa Oeste 2.9 km/h 5.8 km/h 73% 0.0 mm
00:49 25.2 °C 20 °C 1015.3 hPa Oeste 2.9 km/h 6.4 km/h 73% 0.0 mm
00:54 25.2 °C 20 °C 1015.3 hPa Oeste 2.9 km/h 6.9 km/h 73% 0.0 mm
00:59 25.2 °C 20 °C 1015.3 hPa Oeste 2.9 km/h 9.3 km/h 73% 0.0 mm
01:04 25.2 °C 20 °C 1015.3 hPa ONO 2.9 km/h 9.7 km/h 73% 0.0 mm
01:09 25.2 °C 20 °C 1015.2 hPa ONO 3 km/h 8 km/h 73% 0.0 mm
01:14 25.2 °C 20 °C 1015.2 hPa Oeste 3.2 km/h 5.6 km/h 73% 0.0 mm
01:19 25.3 °C 20.1 °C 1015.2 hPa Oeste 2.8 km/h 5.6 km/h 73% 0.0 mm
01:24 25.3 °C 20.1 °C 1015.1 hPa Oeste 2.2 km/h 5.6 km/h 73% 0.0 mm
01:29 25.3 °C 20.1 °C 1015.1 hPa Oeste 2.2 km/h 4.8 km/h 73% 0.0 mm
01:34 25.3 °C 20.1 °C 1015.1 hPa Oeste 2.2 km/h 1.6 km/h 73% 0.0 mm
01:39 25.3 °C 20.1 °C 1015.1 hPa SSO 2.2 km/h 10 km/h 73% 0.0 mm
01:44 25.2 °C 20 °C 1015.1 hPa Sur 2.2 km/h 9.7 km/h 73% 0.0 mm
01:49 25.1 °C 19.9 °C 1015.1 hPa Sur 3.9 km/h 11.1 km/h 73% 0.0 mm
01:54 25.1 °C 19.9 °C 1014.9 hPa Sur 6.5 km/h 13 km/h 73% 0.0 mm
01:59 25 °C 19.8 °C 1014.9 hPa Sur 7.3 km/h 13 km/h 73% 0.0 mm
02:04 25 °C 19.8 °C 1014.9 hPa SSE 8.4 km/h 13 km/h 73% 0.0 mm
02:09 24.9 °C 19.7 °C 1014.9 hPa SO 8 km/h 14.8 km/h 73% 0.0 mm
02:14 25 °C 19.8 °C 1014.9 hPa SO 7.6 km/h 14.5 km/h 73% 0.0 mm
02:19 24.9 °C 19.7 °C 1014.9 hPa SE 7.6 km/h 18.5 km/h 73% 0.0 mm
02:24 24.9 °C 19.7 °C 1014.7 hPa SO 7.6 km/h 19.3 km/h 73% 0.0 mm
02:29 25.1 °C 19.9 °C 1014.7 hPa ONO 8 km/h 17.7 km/h 72.8% 0.0 mm
02:34 25.1 °C 19.7 °C 1014.7 hPa ESE 8.7 km/h 16.1 km/h 72.1% 0.0 mm
02:39 24.9 °C 19.7 °C 1014.7 hPa SO 8.2 km/h 16.7 km/h 73% 0.0 mm
02:44 24.9 °C 19.7 °C 1014.7 hPa SE 7.6 km/h 16.1 km/h 73% 0.0 mm
02:49 24.9 °C 19.7 °C 1014.7 hPa Sur 7.3 km/h 11.9 km/h 73% 0.0 mm
02:54 24.9 °C 19.7 °C 1014.6 hPa SE 6.9 km/h 11.3 km/h 73% 0.0 mm
02:59 24.9 °C 19.7 °C 1014.6 hPa SSO 6.9 km/h 13 km/h 73% 0.0 mm
03:04 24.9 °C 19.7 °C 1014.6 hPa Este 6.9 km/h 12.9 km/h 73% 0.0 mm
03:09 24.9 °C 19.7 °C 1014.5 hPa SSO 6.5 km/h 11.9 km/h 73% 0.0 mm
03:14 25 °C 19.8 °C 1014.5 hPa SSO 5.8 km/h 11.9 km/h 73% 0.0 mm
03:19 25 °C 19.8 °C 1014.5 hPa Sur 6 km/h 11.3 km/h 72.6% 0.0 mm
03:24 25.1 °C 19.7 °C 1014.4 hPa SSO 6.5 km/h 9.7 km/h 72% 0.0 mm
03:29 25.1 °C 19.7 °C 1014.4 hPa Sur 5.9 km/h 10.3 km/h 72% 0.0 mm
03:34 25.1 °C 19.7 °C 1014.4 hPa SSO 5 km/h 11.3 km/h 72% 0.0 mm
03:39 25.1 °C 19.7 °C 1014.3 hPa Sur 5.8 km/h 11.3 km/h 72% 0.0 mm
03:44 25.1 °C 19.7 °C 1014.3 hPa Sur 6.9 km/h 14.8 km/h 72% 0.0 mm
03:49 25.1 °C 19.7 °C 1014.4 hPa SSO 7.5 km/h 16.1 km/h 72% 0.0 mm
03:54 25.1 °C 19.7 °C 1014.4 hPa SSO 8.4 km/h 16.7 km/h 72% 0.0 mm
03:59 25.1 °C 19.7 °C 1014.4 hPa SO 7.5 km/h 10 km/h 72% 0.0 mm
04:04 25.1 °C 19.7 °C 1014.4 hPa SSO 6.5 km/h 11.1 km/h 72% 0.0 mm
04:09 25.1 °C 19.7 °C 1014.2 hPa SSO 6.5 km/h 11.3 km/h 71.9% 0.0 mm
04:14 25.2 °C 19.5 °C 1014.2 hPa SO 6.5 km/h 11.1 km/h 71% 0.0 mm
04:19 25.2 °C 19.6 °C 1014.2 hPa SO 6.5 km/h 11.9 km/h 71% 0.0 mm
04:24 25.2 °C 19.6 °C 1014.2 hPa Sur 6.5 km/h 11.3 km/h 71% 0.0 mm
04:29 25.2 °C 19.5 °C 1014.2 hPa SSO 6.7 km/h 11.9 km/h 71% 0.0 mm
04:34 25.1 °C 19.6 °C 1014.4 hPa SO 6.9 km/h 11.9 km/h 71.7% 0.0 mm
04:39 25.1 °C 19.4 °C 1014.4 hPa SO 6.9 km/h 11.3 km/h 71% 0.0 mm
04:44 25.1 °C 19.4 °C 1014.4 hPa SSO 6.9 km/h 9.7 km/h 71% 0.0 mm
04:49 25.1 °C 19.4 °C 1014.4 hPa SO 6 km/h 13 km/h 71% 0.0 mm
04:54 25.1 °C 19.4 °C 1014.4 hPa SSO 4.7 km/h 12.9 km/h 71% 0.0 mm
04:59 25.1 °C 19.4 °C 1014.4 hPa SSO 5.5 km/h 10 km/h 71% 0.0 mm
05:04 25 °C 19.3 °C 1014.7 hPa Sur 6.5 km/h 9.7 km/h 71% 0.0 mm
05:09 24.9 °C 19.3 °C 1014.7 hPa SO 6.2 km/h 9.7 km/h 71% 0.0 mm
05:14 24.9 °C 19.1 °C 1014.7 hPa SO 5.8 km/h 9.7 km/h 70.3% 0.0 mm
05:19 24.9 °C 19.1 °C 1014.7 hPa SO 5 km/h 9.5 km/h 70% 0.0 mm
05:24 24.9 °C 19.1 °C 1014.7 hPa SO 3.9 km/h 9.7 km/h 70% 0.0 mm
05:29 24.9 °C 19 °C 1014.7 hPa OSO 4.3 km/h 9.7 km/h 69.7% 0.0 mm
05:34 24.9 °C 18.9 °C 1014.7 hPa SO 5 km/h 11.1 km/h 69.1% 0.0 mm
05:39 24.9 °C 18.8 °C 1014.7 hPa SSO 5.6 km/h 13 km/h 69% 0.0 mm
05:44 24.9 °C 18.8 °C 1014.7 hPa SO 6.5 km/h 13.7 km/h 69% 0.0 mm
05:49 24.9 °C 18.8 °C 1014.8 hPa SO 7.3 km/h 14.5 km/h 69% 0.0 mm
05:54 24.9 °C 18.8 °C 1014.8 hPa SSO 8.4 km/h 11.3 km/h 69% 0.0 mm
05:59 24.9 °C 18.8 °C 1014.8 hPa SO 6.8 km/h 9.5 km/h 69% 0.0 mm
06:04 24.9 °C 18.8 °C 1014.9 hPa SSO 5 km/h 11.1 km/h 69% 0.0 mm
06:09 24.9 °C 18.9 °C 1014.9 hPa SO 5.3 km/h 11.3 km/h 69.1% 0.0 mm
06:14 24.9 °C 19 °C 1014.9 hPa SSO 5.8 km/h 9.7 km/h 69.8% 0.0 mm
06:19 24.9 °C 19 °C 1014.9 hPa Sur 4.6 km/h 8 km/h 70% 0.0 mm
06:24 24.8 °C 18.9 °C 1014.9 hPa SO 2.9 km/h 8 km/h 70% 0.0 mm
06:29 24.7 °C 18.9 °C 1014.9 hPa ONO 2.6 km/h 7.4 km/h 70.2% 0.0 mm
06:34 24.5 °C 18.9 °C 1014.9 hPa Oeste 2.2 km/h 8 km/h 71% 0.0 mm
06:39 24.4 °C 18.8 °C 1014.9 hPa SO 2.7 km/h 8 km/h 71% 0.0 mm
06:44 24.4 °C 18.8 °C 1014.9 hPa NO 3.2 km/h 8 km/h 71% 0.0 mm
06:49 24.4 °C 18.8 °C 1015.1 hPa NO 3.1 km/h 6.9 km/h 71% 0.0 mm
06:54 24.4 °C 18.6 °C 1015.1 hPa OSO 2.9 km/h 8.4 km/h 70% 0.0 mm
06:59 24.4 °C 18.6 °C 1015.1 hPa Oeste 3.7 km/h 8 km/h 70% 0.0 mm
07:04 24.5 °C 18.6 °C 1015.1 hPa ONO 4.6 km/h 8 km/h 70% 0.0 mm
07:09 24.4 °C 18.6 °C 1015.0 hPa ONO 4.3 km/h 8 km/h 70% 0.0 mm
07:14 24.4 °C 18.6 °C 1015.0 hPa ONO 3.9 km/h 6.4 km/h 70% 0.0 mm
07:19 24.4 °C 18.5 °C 1015.1 hPa ONO 3.2 km/h 5.8 km/h 69.5% 0.0 mm
07:24 24.4 °C 18.3 °C 1015.1 hPa Oeste 2.2 km/h 6.4 km/h 69% 0.0 mm
07:29 24.5 °C 18.4 °C 1015.1 hPa NNE 2.5 km/h 6.4 km/h 69% 0.0 mm
07:34 24.5 °C 18.3 °C 1015.4 hPa NNE 2.9 km/h 6.4 km/h 68.5% 0.0 mm
07:39 24.6 °C 18.3 °C 1015.4 hPa NNO 1.7 km/h 8.4 km/h 68% 0.0 mm
07:44 24.7 °C 18.5 °C 1015.4 hPa Calm   8 km/h 68.5% 0.0 mm
07:49 24.8 °C 18.5 °C 1015.4 hPa NNO 1 km/h 8 km/h 67.9% 0.0 mm
07:54 24.9 °C 18.4 °C 1015.4 hPa NNO 2.2 km/h 4.8 km/h 67% 0.0 mm
07:59 25.2 °C 18.5 °C 1015.4 hPa NNO 2.2 km/h 5.6 km/h 66.7% 0.0 mm
08:04 25.3 °C 18.5 °C 1015.4 hPa NNO 2.2 km/h 4.8 km/h 66% 0.0 mm
08:09 25.5 °C 18.5 °C 1015.4 hPa NNO 2.2 km/h 4.8 km/h 65.4% 0.0 mm
08:14 25.7 °C 18.5 °C 1015.4 hPa NNO 2.2 km/h 3.2 km/h 64.4% 0.0 mm
08:19 25.9 °C 18.4 °C 1015.4 hPa NNO 1.3 km/h   63.2% 0.0 mm
08:24 26.2 °C 18.3 °C 1015.4 hPa Calm   5.6 km/h 61.6% 0.0 mm
08:29 26.3 °C 18.2 °C 1015.4 hPa Calm   4.8 km/h 60.8% 0.0 mm
08:34 26.5 °C 18.3 °C 1015.6 hPa Calm   5.6 km/h 60.4% 0.0 mm
08:39 26.6 °C 18.2 °C 1015.6 hPa NNO 1.1 km/h 5.6 km/h 60% 0.0 mm
08:44 26.7 °C 18.3 °C 1015.6 hPa NE 2.9 km/h 6.4 km/h 60% 0.0 mm
08:49 26.7 °C 18.2 °C 1015.6 hPa NNO 3 km/h 7.6 km/h 59.7% 0.0 mm
08:54 26.7 °C 18.2 °C 1015.6 hPa NNO 3.2 km/h 11.1 km/h 59.6% 0.0 mm
08:59 26.7 °C 18.3 °C 1015.6 hPa NNO 4 km/h 11.3 km/h 60.1% 0.0 mm
09:04 26.8 °C 18.4 °C 1015.7 hPa NNO 5 km/h 9.7 km/h 60% 0.0 mm
09:09 26.9 °C 18.3 °C 1015.7 hPa NNE 4.2 km/h 10 km/h 59.1% 0.0 mm
09:14 27.1 °C 18.2 °C 1015.7 hPa North 3.2 km/h 9.7 km/h 58.6% 0.0 mm
09:19 27.1 °C 18.1 °C 1015.7 hPa North 3.8 km/h 9.7 km/h 58% 0.0 mm
09:24 27.2 °C 18.1 °C 1015.7 hPa NNE 4.7 km/h 13 km/h 57.8% 0.0 mm
09:29 27.3 °C 18 °C 1015.7 hPa NNE 5.6 km/h 17.2 km/h 56.7% 0.0 mm
09:34 27.3 °C 18 °C 1015.7 hPa NNE 6.9 km/h 17.7 km/h 57% 0.0 mm
09:39 27.3 °C 18.1 °C 1015.7 hPa NNE 8 km/h 16.1 km/h 57% 0.0 mm
09:44 27.5 °C 18.2 °C 1015.7 hPa NNE 9.5 km/h 13.7 km/h 56.9% 0.0 mm
09:49 27.7 °C 18.2 °C 1015.9 hPa NNE 9.2 km/h 22.2 km/h 56.3% 0.0 mm
09:54 27.8 °C 18.2 °C 1015.9 hPa NNE 8.7 km/h 22.5 km/h 56% 0.0 mm
09:59 27.9 °C 17.7 °C 1015.9 hPa NE 10.2 km/h 24.1 km/h 53.8% 0.0 mm
10:04 28.1 °C 17.6 °C 1015.9 hPa NE 12.2 km/h 24.1 km/h 52.8% 0.0 mm
10:09 28.3 °C 17.6 °C 1015.9 hPa NE 13 km/h 24.1 km/h 52.5% 0.0 mm
10:14 28.5 °C 17.7 °C 1015.9 hPa NE 14 km/h 22.5 km/h 52% 0.0 mm
10:19 28.7 °C 17.4 °C 1015.9 hPa NNE 13.3 km/h 22.5 km/h 50.6% 0.0 mm
10:24 28.7 °C 17.4 °C 1015.8 hPa NNE 12.2 km/h 24.5 km/h 50.5% 0.0 mm
10:29 28.9 °C 17.5 °C 1015.8 hPa NNE 12.9 km/h 24.1 km/h 50.2% 0.0 mm
10:34 28.9 °C 17.5 °C 1015.8 hPa NNE 13.7 km/h 27.8 km/h 50% 0.0 mm
10:39 29 °C 17.5 °C 1015.8 hPa NNE 13.8 km/h 27.4 km/h 49.9% 0.0 mm
10:44 29.2 °C 17.5 °C 1015.8 hPa NE 14 km/h 25.7 km/h 49.4% 0.0 mm
10:49 29.5 °C 17.2 °C 1015.9 hPa NE 13.9 km/h 34.6 km/h 47.7% 0.0 mm
10:54 29.7 °C 17.1 °C 1015.9 hPa NE 13.7 km/h 35.4 km/h 46.8% 0.0 mm
10:59 29.7 °C 17.2 °C 1015.9 hPa NE 16.3 km/h 33.8 km/h 47.1% 0.0 mm
11:04 29.8 °C 17.3 °C 1016.0 hPa NNE 19.8 km/h 38.9 km/h 47% 0.0 mm
11:09 29.9 °C 17 °C 1016.0 hPa NE 20.3 km/h 38.6 km/h 46% 0.0 mm
11:14 29.9 °C 16.9 °C 1016.0 hPa NE 20.9 km/h 40.7 km/h 45.7% 0.0 mm
11:19 29.9 °C 16.8 °C 1016.0 hPa NE 21.2 km/h 40.2 km/h 45.3% 0.0 mm
11:24 30.2 °C 17 °C 1015.9 hPa NNE 21.7 km/h 37 km/h 45.2% 0.0 mm
11:29 30.3 °C 17.1 °C 1015.9 hPa NE 20.6 km/h 37 km/h 45.2% 0.0 mm
11:34 30.3 °C 17 °C 1015.9 hPa NE 19 km/h 33.8 km/h 44.9% 0.0 mm
11:39 30.4 °C 16.7 °C 1015.8 hPa NE 19.4 km/h 34.3 km/h 43.9% 0.0 mm
11:44 30.6 °C 17.1 °C 1015.8 hPa NE 20.1 km/h 33.8 km/h 44.4% 0.0 mm
11:49 30.7 °C 16.8 °C 1016.0 hPa NE 19.7 km/h 35.9 km/h 43.3% 0.0 mm
11:54 30.7 °C 17 °C 1016.0 hPa NE 19 km/h 35.4 km/h 43.9% 0.0 mm
11:59 30.7 °C 17.1 °C 1016.0 hPa NE 18.2 km/h 33.8 km/h 44.1% 0.0 mm
12:04 30.7 °C 17 °C 1016.0 hPa NE 17.2 km/h 34.3 km/h 43.9% 0.0 mm
12:09 30.6 °C 16.8 °C 1016.0 hPa ENE 18.4 km/h 33.8 km/h 43.6% 0.0 mm
12:14 30.7 °C 16.9 °C 1016.0 hPa NE 20.1 km/h 37 km/h 43.7% 0.0 mm
12:19 30.6 °C 17.3 °C 1016.0 hPa NE 20 km/h 37 km/h 45% 0.0 mm
12:24 30.7 °C 17.8 °C 1016.0 hPa ENE 19.8 km/h 37 km/h 46.1% 0.0 mm
12:29 30.7 °C 17.8 °C 1016.0 hPa ENE 18.4 km/h 37 km/h 46% 0.0 mm
12:34 30.5 °C 17.7 °C 1016.1 hPa ENE 16.4 km/h 33.8 km/h 46.2% 0.0 mm
12:39 30.4 °C 17.8 °C 1016.1 hPa NE 16.7 km/h 36.2 km/h 46.8% 0.0 mm
12:44 30.4 °C 17.6 °C 1016.1 hPa NE 17.2 km/h 37 km/h 46.2% 0.0 mm
12:49 30.4 °C 17.8 °C 1016.1 hPa Este 19.1 km/h 42.6 km/h 46.9% 0.0 mm
12:54 30.4 °C 17.9 °C 1016.1 hPa NE 21.7 km/h 41.8 km/h 47.1% 0.0 mm
12:59 30.4 °C 17.9 °C 1016.1 hPa ENE 20.6 km/h 37 km/h 47.3% 0.0 mm
13:04 30.5 °C 17.8 °C 1016.1 hPa ENE 19 km/h 33.8 km/h 46.6% 0.0 mm
13:09 30.6 °C 17.8 °C 1016.1 hPa ENE 17.6 km/h 29.6 km/h 46.6% 0.0 mm
13:14 30.6 °C 17.9 °C 1016.1 hPa ENE 15.6 km/h 35.2 km/h 46.8% 0.0 mm
13:19 30.6 °C 18 °C 1016.1 hPa ENE 15.9 km/h 35.4 km/h 47.1% 0.0 mm
13:24 30.7 °C 18.1 °C 1016.0 hPa ENE 16.4 km/h 33.8 km/h 47% 0.0 mm
13:29 30.7 °C 18.1 °C 1016.0 hPa NE 16.3 km/h 33.8 km/h 46.9% 0.0 mm
13:34 30.7 °C 17.9 °C 1016.0 hPa NE 16.1 km/h 35.2 km/h 46.3% 0.0 mm
13:39 30.7 °C 17.9 °C 1015.9 hPa ENE 17.6 km/h 35.9 km/h 46.2% 0.0 mm
13:44 30.8 °C 17.7 °C 1015.9 hPa ENE 19.8 km/h 35.4 km/h 45.6% 0.0 mm
13:49 30.8 °C 17.7 °C 1015.9 hPa ENE 19.3 km/h 32.2 km/h 45.6% 0.0 mm
13:54 30.8 °C 17.8 °C 1015.7 hPa NE 17.2 km/h 30.9 km/h 46% 0.0 mm
13:59 30.7 °C 17.6 °C 1015.7 hPa NE 16.9 km/h 32.2 km/h 45.6% 0.0 mm
14:04 30.8 °C 17.4 °C 1015.8 hPa NE 16.1 km/h 33.5 km/h 45% 0.0 mm
14:09 30.6 °C 17.6 °C 1015.8 hPa ENE 16.8 km/h 33.8 km/h 45.7% 0.0 mm
14:14 30.7 °C 17.7 °C 1015.8 hPa ENE 19.8 km/h 30.6 km/h 46% 0.0 mm
14:19 30.6 °C 17.7 °C 1015.8 hPa ENE 19.1 km/h 35.9 km/h 46% 0.0 mm
14:24 30.6 °C 17.7 °C 1015.7 hPa ENE 16.1 km/h 35.4 km/h 46.1% 0.0 mm
14:29 30.6 °C 17.7 °C 1015.7 hPa ENE 16.2 km/h 31.5 km/h 46% 0.0 mm
14:34 30.7 °C 17.8 °C 1015.7 hPa ENE 16.4 km/h 32.2 km/h 46% 0.0 mm
14:39 30.8 °C 17.9 °C 1015.6 hPa NE 16.6 km/h 35.2 km/h 46.1% 0.0 mm
14:44 30.7 °C 18 °C 1015.6 hPa ENE 17.2 km/h 35.4 km/h 46.7% 0.0 mm
14:49 30.8 °C 17.8 °C 1015.6 hPa ENE 17.2 km/h 37 km/h 46% 0.0 mm
14:54 30.9 °C 17.7 °C 1015.5 hPa ENE 17.2 km/h 37 km/h 45.5% 0.0 mm
14:59 31.1 °C 17.8 °C 1015.5 hPa Este 17 km/h 32.2 km/h 45.1% 0.0 mm
15:04 31.2 °C 17.8 °C 1015.6 hPa ENE 16.4 km/h 30.9 km/h 45% 0.0 mm
15:09 31.3 °C 17.8 °C 1015.6 hPa ENE 16.4 km/h 32.2 km/h 44.5% 0.0 mm
15:14 31.4 °C 17.6 °C 1015.6 hPa ENE 16.4 km/h 29 km/h 44% 0.0 mm
15:19 31.7 °C 17.5 °C 1015.6 hPa NE 16.1 km/h 29.6 km/h 43% 0.0 mm
15:24 31.8 °C 16.8 °C 1015.5 hPa NE 14.8 km/h 37 km/h 40.7% 0.0 mm
15:29 31.6 °C 17.2 °C 1015.5 hPa ENE 15.8 km/h 37 km/h 42.2% 0.0 mm
15:34 31.3 °C 17.4 °C 1015.5 hPa ENE 19.8 km/h 32.2 km/h 43.3% 0.0 mm
15:39 31.1 °C 17.1 °C 1015.5 hPa ENE 18.7 km/h 30.6 km/h 43.2% 0.0 mm
15:44 31.2 °C 16.9 °C 1015.5 hPa NE 14.8 km/h 28.6 km/h 42.4% 0.0 mm
15:49 31.4 °C 16.9 °C 1015.5 hPa NE 14.8 km/h 29.6 km/h 42% 0.0 mm
15:54 31.4 °C 17 °C 1015.2 hPa NE 14.8 km/h 35.9 km/h 42.2% 0.0 mm
15:59 31.4 °C 17 °C 1015.2 hPa ENE 16.1 km/h 35.4 km/h 42.1% 0.0 mm
16:04 31.7 °C 16.8 °C 1015.2 hPa ENE 19.8 km/h 33.8 km/h 40.9% 0.0 mm
16:09 31.9 °C 16.6 °C 1015.2 hPa ENE 19.2 km/h 35.9 km/h 39.8% 0.0 mm
16:14 32.1 °C 16.5 °C 1015.2 hPa NE 17.2 km/h 35.4 km/h 39.4% 0.0 mm
16:19 31.9 °C 16.4 °C 1015.2 hPa NE 17.4 km/h 35.4 km/h 39.6% 0.0 mm
16:24 31.6 °C 16.5 °C 1015.1 hPa NE 18 km/h 42.6 km/h 40.3% 0.0 mm
16:29 31.5 °C 16.7 °C 1015.1 hPa ENE 18.9 km/h 41.8 km/h 41.2% 0.0 mm
16:34 31.4 °C 16.6 °C 1015.1 hPa NE 22.1 km/h 37.8 km/h 41.1% 0.0 mm
16:39 31.3 °C 16.5 °C 1015.0 hPa NE 21.8 km/h 37 km/h 41% 0.0 mm
16:44 31.5 °C 16.5 °C 1015.0 hPa NE 20.9 km/h 37 km/h 40.5% 0.0 mm
16:49 31.7 °C 16.8 °C 1015.0 hPa NE 20.4 km/h 47.3 km/h 41% 0.0 mm
16:54 31.7 °C 16.6 °C 1014.8 hPa NE 18.4 km/h 48.3 km/h 40.4% 0.0 mm
16:59 31.7 °C 16.3 °C 1014.8 hPa NE 19.3 km/h 48.3 km/h 39.6% 0.0 mm
17:04 31.6 °C 16.1 °C 1014.8 hPa NE 22.1 km/h 40.7 km/h 39.3% 0.0 mm
17:09 31.4 °C 16.1 °C 1014.8 hPa NE 22.8 km/h 40.7 km/h 39.9% 0.0 mm
17:14 31.6 °C 16 °C 1014.8 hPa NE 25.6 km/h 39.6 km/h 39.3% 0.0 mm
17:19 31.7 °C 16 °C 1014.8 hPa NE 24.9 km/h 41.2 km/h 38.8% 0.0 mm
17:24 31.8 °C 15.8 °C 1014.7 hPa NE 22.5 km/h 44.3 km/h 38.2% 0.0 mm
17:29 31.9 °C 15.8 °C 1014.7 hPa NE 22.4 km/h 45.1 km/h 38% 0.0 mm
17:34 31.9 °C 15.7 °C 1014.7 hPa NE 22.1 km/h 43.1 km/h 37.7% 0.0 mm
17:39 31.9 °C 15.7 °C 1014.7 hPa NE 22 km/h 43.5 km/h 37.5% 0.0 mm
17:44 31.8 °C 15.7 °C 1014.7 hPa NE 21.7 km/h 43.5 km/h 37.8% 0.0 mm
17:49 31.8 °C 15.7 °C 1014.7 hPa NE 22.7 km/h 41.8 km/h 38% 0.0 mm
17:54 31.8 °C 15.7 °C 1014.6 hPa NE 26.2 km/h 44.9 km/h 38% 0.0 mm
17:59 31.6 °C 15.8 °C 1014.6 hPa NE 26.5 km/h 45.1 km/h 38.5% 0.0 mm
18:04 31.6 °C 15.9 °C 1014.6 hPa NE 27.4 km/h 45.1 km/h 39% 0.0 mm
18:09 31.5 °C 15.9 °C 1014.5 hPa NE 26.9 km/h 44.4 km/h 39% 0.0 mm
18:14 31.4 °C 15.8 °C 1014.5 hPa NE 25.1 km/h 45.1 km/h 39.1% 0.0 mm
18:19 31.4 °C 15.9 °C 1014.7 hPa NE 24.8 km/h 41.2 km/h 39.1% 0.0 mm
18:24 31.3 °C 16.1 °C 1014.7 hPa NE 23.7 km/h 41.8 km/h 40% 0.0 mm
18:29 31.3 °C 16.1 °C 1014.7 hPa NE 23.4 km/h 37.8 km/h 40% 0.0 mm
18:34 31.3 °C 16.1 °C 1014.7 hPa NE 22.5 km/h 43.1 km/h 40% 0.0 mm
18:39 31.2 °C 16 °C 1014.6 hPa NE 22.4 km/h 43.5 km/h 40% 0.0 mm
18:44 31.2 °C 16 °C 1014.6 hPa NE 22.1 km/h 38.9 km/h 40% 0.0 mm
18:49 31.1 °C 15.9 °C 1014.6 hPa NE 22.1 km/h 38.6 km/h 40% 0.0 mm
18:54 31.1 °C 16 °C 1014.6 hPa NE 22.1 km/h 42.6 km/h 40.4% 0.0 mm
18:59 30.9 °C 16.1 °C 1014.6 hPa NE 22.4 km/h 41.8 km/h 40.9% 0.0 mm
19:04 30.9 °C 16.1 °C 1014.6 hPa NE 23.3 km/h 38.6 km/h 41% 0.0 mm
19:09 31 °C 16.2 °C 1014.5 hPa NE 22.2 km/h 35.9 km/h 41% 0.0 mm
19:14 30.8 °C 16 °C 1014.5 hPa NE 18 km/h 38.9 km/h 40.8% 0.0 mm
19:19 30.7 °C 15.9 °C 1014.6 hPa NE 19.3 km/h 40.7 km/h 41% 0.0 mm
19:24 30.7 °C 15.9 °C 1014.6 hPa NE 23.7 km/h 40.2 km/h 41% 0.0 mm
19:29 30.7 °C 15.9 °C 1014.6 hPa NE 22.7 km/h 37 km/h 41% 0.0 mm
19:34 30.6 °C 15.8 °C 1014.7 hPa NE 19 km/h 37 km/h 41% 0.0 mm
19:39 30.6 °C 15.8 °C 1014.7 hPa NE 18.8 km/h 33.8 km/h 41% 0.0 mm
19:44 30.5 °C 15.8 °C 1014.7 hPa NE 18.4 km/h 35.2 km/h 41% 0.0 mm
19:49 30.3 °C 15.6 °C 1014.7 hPa NE 18.9 km/h 35.4 km/h 41% 0.0 mm
19:54 30.2 °C 15.8 °C 1014.7 hPa NE 20.9 km/h 33.8 km/h 41.7% 0.0 mm
19:59 30.2 °C 15.8 °C 1014.7 hPa NE 20.7 km/h 33.8 km/h 42% 0.0 mm
20:04 30.1 °C 15.7 °C 1014.7 hPa NE 20.1 km/h 34.3 km/h 42% 0.0 mm
20:09 29.9 °C 15.6 °C 1014.7 hPa NE 19.8 km/h 33.8 km/h 42% 0.0 mm
20:14 29.9 °C 15.6 °C 1014.7 hPa NE 18.4 km/h 31.7 km/h 42% 0.0 mm
20:19 29.9 °C 15.6 °C 1014.9 hPa NE 18.1 km/h 32.2 km/h 42% 0.0 mm
20:24 29.8 °C 15.5 °C 1014.9 hPa ENE 17.2 km/h 30.6 km/h 42% 0.0 mm
20:29 29.8 °C 15.5 °C 1014.9 hPa NE 17.6 km/h 33.3 km/h 41.9% 0.0 mm
20:34 29.6 °C 15.3 °C 1015.1 hPa NE 19 km/h 33.8 km/h 42% 0.0 mm
20:39 29.5 °C 15.2 °C 1015.1 hPa NE 18.4 km/h 25.7 km/h 42% 0.0 mm
20:44 29.4 °C 15.1 °C 1015.1 hPa NE 16.4 km/h 34.3 km/h 42% 0.0 mm
20:49 29.3 °C 15.1 °C 1015.2 hPa NE 16.8 km/h 33.8 km/h 42% 0.0 mm
20:54 29.2 °C 15.3 °C 1015.2 hPa NE 18.4 km/h 30.6 km/h 42.9% 0.0 mm
20:59 29.2 °C 15.3 °C 1015.2 hPa NE 17.2 km/h 24.1 km/h 43% 0.0 mm
21:04 29.1 °C 15.4 °C 1015.3 hPa NE 13.7 km/h 24.5 km/h 43.4% 0.0 mm
21:09 29.1 °C 15.6 °C 1015.3 hPa NE 14.1 km/h 24.1 km/h 44% 0.0 mm
21:14 28.9 °C 15.7 °C 1015.3 hPa NE 15.6 km/h 22.5 km/h 44.6% 0.0 mm
21:19 28.8 °C 15.7 °C 1015.3 hPa NE 15.4 km/h 24.1 km/h 45% 0.0 mm
21:24 28.7 °C 15.8 °C 1015.3 hPa NE 14.8 km/h 24.1 km/h 45.5% 0.0 mm
21:29 28.5 °C 15.8 °C 1015.3 hPa NE 15.1 km/h 24.5 km/h 46% 0.0 mm
21:34 28.4 °C 15.9 °C 1015.3 hPa NE 16.1 km/h 26.2 km/h 46.8% 0.0 mm
21:39 28.3 °C 15.9 °C 1015.3 hPa NE 15.6 km/h 25.7 km/h 47% 0.0 mm
21:44 28.2 °C 16 °C 1015.3 hPa NE 14 km/h 20.9 km/h 47.5% 0.0 mm
21:49 28.1 °C 16.1 °C 1015.3 hPa NE 13.6 km/h 24.1 km/h 48% 0.0 mm
21:54 28 °C 16 °C 1015.1 hPa NE 12.2 km/h 24.5 km/h 48.3% 0.0 mm
21:59 27.8 °C 16.2 °C 1015.1 hPa NE 13.1 km/h 27.8 km/h 49% 0.0 mm
22:04 27.8 °C 16.1 °C 1015.2 hPa NE 15.6 km/h 27.4 km/h 49% 0.0 mm
22:09 27.8 °C 16.1 °C 1015.2 hPa NE 15.3 km/h 25.9 km/h 49% 0.0 mm
22:14 27.7 °C 16 °C 1015.2 hPa NE 14 km/h 25.7 km/h 49% 0.0 mm
22:19 27.7 °C 16 °C 1015.2 hPa NE 13.2 km/h 16.7 km/h 49% 0.0 mm
22:24 27.5 °C 16.1 °C 1015.2 hPa NE 10 km/h 16.7 km/h 49.8% 0.0 mm
22:29 27.4 °C 16.1 °C 1015.2 hPa NE 10 km/h 16.1 km/h 50% 0.0 mm
22:34 27.3 °C 15.9 °C 1015.2 hPa NE 10.3 km/h 14.5 km/h 50% 0.0 mm
22:39 27.2 °C 15.9 °C 1015.2 hPa NE 10 km/h 14.5 km/h 50% 0.0 mm
22:44 27.2 °C 15.9 °C 1015.2 hPa NE 8.7 km/h 14.5 km/h 50% 0.0 mm
22:49 27.1 °C 15.8 °C 1015.4 hPa NE 8.6 km/h 11.3 km/h 50% 0.0 mm
22:54 27.1 °C 15.7 °C 1015.4 hPa NE 8.4 km/h 11.3 km/h 50% 0.0 mm
22:59 27 °C 15.7 °C 1015.4 hPa NE 7.3 km/h 9.7 km/h 50% 0.0 mm
23:04 27.1 °C 15.7 °C 1015.7 hPa NE 3.9 km/h 6.4 km/h 50% 0.0 mm
23:09 27.1 °C 15.7 °C 1015.7 hPa NE 3.7 km/h 7.4 km/h 49.8% 0.0 mm
23:14 27.2 °C 15.6 °C 1015.7 hPa NE 2.9 km/h 8 km/h 49.2% 0.0 mm
23:19 27.2 °C 15.6 °C 1015.9 hPa NE 3 km/h 8 km/h 49.1% 0.0 mm
23:24 27.2 °C 15.7 °C 1015.9 hPa NE 3.2 km/h 6.4 km/h 49.5% 0.0 mm
23:29 27.1 °C 15.8 °C 1015.9 hPa ONO 3.2 km/h 8 km/h 50% 0.0 mm
23:34 27 °C 15.7 °C 1016.0 hPa ONO 2.9 km/h 8 km/h 50% 0.0 mm
23:39 26.9 °C 15.6 °C 1016.0 hPa ONO 3 km/h 8 km/h 50% 0.0 mm
23:44 26.9 °C 15.8 °C 1016.0 hPa ONO 3.2 km/h 6.4 km/h 50.5% 0.0 mm
23:49 26.9 °C 15.9 °C 1016.2 hPa ONO 3.2 km/h 7.4 km/h 51% 0.0 mm
23:54 26.8 °C 15.8 °C 1016.2 hPa ONO 3.2 km/h 8 km/h 51% 0.0 mm
23:59 26.8 °C 16 °C 1016.2 hPa ONO 3.4 km/h 8 km/h 51.6% 0.0 mm
Murcia-Puente Tocinos, España
Compliments of Weather Underground - 3 mb

La estación de MeteoMurcia.com, publica sus datos en los siguientes proyectos:

Weather Underground PWS IMURCIAP2 Meteoclimatic www.awekas.at

W3Counter
Web Analytics